sensor_id;sensor_type;location;lat;lon;timestamp;P1;durP1;ratioP1;P2;durP2;ratioP2
49852;SDS011;35751;48.072;11.688;2023-08-06T00:01:35;10.73;;;7.55;;
49852;SDS011;35751;48.072;11.688;2023-08-06T00:04:00;10.73;;;6.88;;
49852;SDS011;35751;48.072;11.688;2023-08-06T00:06:26;10.02;;;6.75;;
49852;SDS011;35751;48.072;11.688;2023-08-06T00:08:54;9.35;;;6.18;;
49852;SDS011;35751;48.072;11.688;2023-08-06T00:11:20;8.30;;;6.13;;
49852;SDS011;35751;48.072;11.688;2023-08-06T00:13:48;8.25;;;5.82;;
49852;SDS011;35751;48.072;11.688;2023-08-06T00:16:23;16.55;;;7.18;;
49852;SDS011;35751;48.072;11.688;2023-08-06T00:18:48;8.02;;;6.03;;
49852;SDS011;35751;48.072;11.688;2023-08-06T00:21:14;9.18;;;5.68;;
49852;SDS011;35751;48.072;11.688;2023-08-06T00:23:42;9.63;;;6.43;;
49852;SDS011;35751;48.072;11.688;2023-08-06T00:26:10;8.48;;;6.57;;
49852;SDS011;35751;48.072;11.688;2023-08-06T00:28:36;7.47;;;5.40;;
49852;SDS011;35751;48.072;11.688;2023-08-06T00:31:01;8.23;;;5.60;;
49852;SDS011;35751;48.072;11.688;2023-08-06T00:33:26;8.30;;;5.75;;
49852;SDS011;35751;48.072;11.688;2023-08-06T00:36:07;7.90;;;6.28;;
49852;SDS011;35751;48.072;11.688;2023-08-06T00:38:33;6.45;;;5.03;;
49852;SDS011;35751;48.072;11.688;2023-08-06T00:41:01;6.45;;;5.00;;
49852;SDS011;35751;48.072;11.688;2023-08-06T00:43:26;6.57;;;5.43;;
49852;SDS011;35751;48.072;11.688;2023-08-06T00:45:51;5.50;;;4.60;;
49852;SDS011;35751;48.072;11.688;2023-08-06T00:48:17;7.45;;;5.03;;
49852;SDS011;35751;48.072;11.688;2023-08-06T00:50:50;7.50;;;5.38;;
49852;SDS011;35751;48.072;11.688;2023-08-06T00:53:21;6.80;;;5.00;;
49852;SDS011;35751;48.072;11.688;2023-08-06T00:55:46;7.10;;;5.03;;
49852;SDS011;35751;48.072;11.688;2023-08-06T00:58:12;7.32;;;4.72;;
49852;SDS011;35751;48.072;11.688;2023-08-06T01:00:39;7.70;;;4.97;;
49852;SDS011;35751;48.072;11.688;2023-08-06T01:03:07;8.25;;;4.68;;
49852;SDS011;35751;48.072;11.688;2023-08-06T01:05:35;8.23;;;4.97;;
49852;SDS011;35751;48.072;11.688;2023-08-06T01:08:19;8.27;;;5.43;;
49852;SDS011;35751;48.072;11.688;2023-08-06T01:10:55;7.68;;;5.15;;
49852;SDS011;35751;48.072;11.688;2023-08-06T01:13:42;7.53;;;5.75;;
49852;SDS011;35751;48.072;11.688;2023-08-06T01:16:15;10.15;;;5.25;;
49852;SDS011;35751;48.072;11.688;2023-08-06T01:18:41;7.20;;;5.35;;
49852;SDS011;35751;48.072;11.688;2023-08-06T01:21:11;7.20;;;5.32;;
49852;SDS011;35751;48.072;11.688;2023-08-06T01:23:37;7.70;;;5.43;;
49852;SDS011;35751;48.072;11.688;2023-08-06T01:29:03;6.03;;;4.70;;
49852;SDS011;35751;48.072;11.688;2023-08-06T01:31:39;6.65;;;4.68;;
49852;SDS011;35751;48.072;11.688;2023-08-06T01:34:11;8.05;;;5.72;;
49852;SDS011;35751;48.072;11.688;2023-08-06T01:36:42;6.82;;;5.30;;
49852;SDS011;35751;48.072;11.688;2023-08-06T01:39:08;10.55;;;5.43;;
49852;SDS011;35751;48.072;11.688;2023-08-06T01:41:33;6.70;;;5.00;;
49852;SDS011;35751;48.072;11.688;2023-08-06T01:43:58;10.07;;;4.93;;
49852;SDS011;35751;48.072;11.688;2023-08-06T01:46:24;7.50;;;5.13;;
49852;SDS011;35751;48.072;11.688;2023-08-06T01:48:49;8.35;;;5.68;;
49852;SDS011;35751;48.072;11.688;2023-08-06T01:51:20;8.57;;;5.50;;
49852;SDS011;35751;48.072;11.688;2023-08-06T01:53:46;9.27;;;6.90;;
49852;SDS011;35751;48.072;11.688;2023-08-06T01:56:11;9.60;;;5.88;;
49852;SDS011;35751;48.072;11.688;2023-08-06T01:58:36;13.30;;;6.72;;
49852;SDS011;35751;48.072;11.688;2023-08-06T02:01:02;8.52;;;5.45;;
49852;SDS011;35751;48.072;11.688;2023-08-06T02:03:27;7.28;;;5.53;;
49852;SDS011;35751;48.072;11.688;2023-08-06T02:05:53;6.88;;;5.10;;
49852;SDS011;35751;48.072;11.688;2023-08-06T02:08:21;10.13;;;5.82;;
49852;SDS011;35751;48.072;11.688;2023-08-06T02:10:46;7.35;;;5.82;;
49852;SDS011;35751;48.072;11.688;2023-08-06T02:13:12;9.30;;;6.05;;
49852;SDS011;35751;48.072;11.688;2023-08-06T02:15:43;8.10;;;5.82;;
49852;SDS011;35751;48.072;11.688;2023-08-06T02:18:13;8.80;;;5.55;;
49852;SDS011;35751;48.072;11.688;2023-08-06T02:20:40;7.47;;;5.15;;
49852;SDS011;35751;48.072;11.688;2023-08-06T02:23:05;5.90;;;4.75;;
49852;SDS011;35751;48.072;11.688;2023-08-06T02:25:34;6.55;;;4.63;;
49852;SDS011;35751;48.072;11.688;2023-08-06T02:27:59;6.70;;;5.00;;
49852;SDS011;35751;48.072;11.688;2023-08-06T02:30:24;5.85;;;4.13;;
49852;SDS011;35751;48.072;11.688;2023-08-06T02:32:50;5.97;;;4.20;;
49852;SDS011;35751;48.072;11.688;2023-08-06T02:35:15;6.20;;;4.35;;
49852;SDS011;35751;48.072;11.688;2023-08-06T02:37:41;5.47;;;4.68;;
49852;SDS011;35751;48.072;11.688;2023-08-06T02:40:09;6.75;;;5.03;;
49852;SDS011;35751;48.072;11.688;2023-08-06T02:42:34;5.57;;;4.30;;
49852;SDS011;35751;48.072;11.688;2023-08-06T02:45:00;5.03;;;3.80;;
49852;SDS011;35751;48.072;11.688;2023-08-06T02:47:25;4.97;;;4.13;;
49852;SDS011;35751;48.072;11.688;2023-08-06T02:49:54;4.78;;;3.90;;
49852;SDS011;35751;48.072;11.688;2023-08-06T02:52:19;6.13;;;4.85;;
49852;SDS011;35751;48.072;11.688;2023-08-06T02:54:44;5.13;;;3.67;;
49852;SDS011;35751;48.072;11.688;2023-08-06T02:57:10;6.97;;;4.22;;
49852;SDS011;35751;48.072;11.688;2023-08-06T02:59:35;6.15;;;4.40;;
49852;SDS011;35751;48.072;11.688;2023-08-06T03:02:00;6.28;;;4.20;;
49852;SDS011;35751;48.072;11.688;2023-08-06T03:04:26;5.65;;;4.50;;
49852;SDS011;35751;48.072;11.688;2023-08-06T03:06:51;4.63;;;4.15;;
49852;SDS011;35751;48.072;11.688;2023-08-06T03:09:17;6.78;;;4.30;;
49852;SDS011;35751;48.072;11.688;2023-08-06T03:11:43;5.78;;;3.90;;
49852;SDS011;35751;48.072;11.688;2023-08-06T03:14:08;10.48;;;5.03;;
49852;SDS011;35751;48.072;11.688;2023-08-06T03:16:34;7.13;;;4.63;;
49852;SDS011;35751;48.072;11.688;2023-08-06T03:19:02;7.68;;;4.30;;
49852;SDS011;35751;48.072;11.688;2023-08-06T03:21:27;4.80;;;3.92;;
49852;SDS011;35751;48.072;11.688;2023-08-06T03:23:52;6.55;;;4.30;;
49852;SDS011;35751;48.072;11.688;2023-08-06T03:26:20;5.28;;;3.72;;
49852;SDS011;35751;48.072;11.688;2023-08-06T03:28:45;7.22;;;4.45;;
49852;SDS011;35751;48.072;11.688;2023-08-06T03:31:11;6.18;;;4.55;;
49852;SDS011;35751;48.072;11.688;2023-08-06T03:33:36;8.77;;;3.67;;
49852;SDS011;35751;48.072;11.688;2023-08-06T03:36:02;6.20;;;4.97;;
49852;SDS011;35751;48.072;11.688;2023-08-06T03:38:27;4.38;;;3.88;;
49852;SDS011;35751;48.072;11.688;2023-08-06T03:40:52;6.70;;;4.38;;
49852;SDS011;35751;48.072;11.688;2023-08-06T03:43:18;5.18;;;3.92;;
49852;SDS011;35751;48.072;11.688;2023-08-06T03:45:45;5.95;;;3.60;;
49852;SDS011;35751;48.072;11.688;2023-08-06T03:48:10;9.68;;;4.90;;
49852;SDS011;35751;48.072;11.688;2023-08-06T03:50:35;4.85;;;3.80;;
49852;SDS011;35751;48.072;11.688;2023-08-06T03:53:01;5.13;;;3.53;;
49852;SDS011;35751;48.072;11.688;2023-08-06T03:55:26;4.93;;;3.08;;
49852;SDS011;35751;48.072;11.688;2023-08-06T03:57:52;4.57;;;3.55;;
49852;SDS011;35751;48.072;11.688;2023-08-06T04:00:17;5.85;;;4.00;;
49852;SDS011;35751;48.072;11.688;2023-08-06T04:02:43;7.68;;;3.20;;
49852;SDS011;35751;48.072;11.688;2023-08-06T04:05:08;4.03;;;3.25;;
49852;SDS011;35751;48.072;11.688;2023-08-06T04:07:34;3.92;;;3.30;;
49852;SDS011;35751;48.072;11.688;2023-08-06T04:10:01;6.65;;;3.40;;
49852;SDS011;35751;48.072;11.688;2023-08-06T04:12:28;5.03;;;3.50;;
49852;SDS011;35751;48.072;11.688;2023-08-06T04:14:54;5.90;;;3.53;;
49852;SDS011;35751;48.072;11.688;2023-08-06T04:17:23;4.40;;;3.38;;
49852;SDS011;35751;48.072;11.688;2023-08-06T04:19:52;4.47;;;2.95;;
49852;SDS011;35751;48.072;11.688;2023-08-06T04:22:18;3.75;;;3.10;;
49852;SDS011;35751;48.072;11.688;2023-08-06T04:24:44;3.10;;;2.75;;
49852;SDS011;35751;48.072;11.688;2023-08-06T04:27:10;3.67;;;2.72;;
49852;SDS011;35751;48.072;11.688;2023-08-06T04:29:36;3.65;;;2.90;;
49852;SDS011;35751;48.072;11.688;2023-08-06T04:32:03;4.32;;;2.95;;
49852;SDS011;35751;48.072;11.688;2023-08-06T04:34:30;4.43;;;3.25;;
49852;SDS011;35751;48.072;11.688;2023-08-06T04:36:56;3.50;;;2.58;;
49852;SDS011;35751;48.072;11.688;2023-08-06T04:39:21;6.57;;;3.15;;
49852;SDS011;35751;48.072;11.688;2023-08-06T04:41:46;5.75;;;3.08;;
49852;SDS011;35751;48.072;11.688;2023-08-06T04:44:12;3.40;;;3.08;;
49852;SDS011;35751;48.072;11.688;2023-08-06T04:46:37;3.65;;;2.70;;
49852;SDS011;35751;48.072;11.688;2023-08-06T04:49:02;2.67;;;2.42;;
49852;SDS011;35751;48.072;11.688;2023-08-06T04:51:28;4.00;;;2.67;;
49852;SDS011;35751;48.072;11.688;2023-08-06T04:53:53;3.25;;;2.33;;
49852;SDS011;35751;48.072;11.688;2023-08-06T04:56:18;5.35;;;2.70;;
49852;SDS011;35751;48.072;11.688;2023-08-06T04:58:44;3.85;;;2.40;;
49852;SDS011;35751;48.072;11.688;2023-08-06T05:01:09;2.67;;;2.17;;
49852;SDS011;35751;48.072;11.688;2023-08-06T05:03:41;4.03;;;2.80;;
49852;SDS011;35751;48.072;11.688;2023-08-06T05:06:06;2.78;;;2.28;;
49852;SDS011;35751;48.072;11.688;2023-08-06T05:08:31;4.10;;;2.47;;
49852;SDS011;35751;48.072;11.688;2023-08-06T05:10:57;2.55;;;2.03;;
49852;SDS011;35751;48.072;11.688;2023-08-06T05:13:22;4.35;;;2.60;;
49852;SDS011;35751;48.072;11.688;2023-08-06T05:15:47;3.80;;;2.65;;
49852;SDS011;35751;48.072;11.688;2023-08-06T05:18:19;3.38;;;2.60;;
49852;SDS011;35751;48.072;11.688;2023-08-06T05:20:45;4.85;;;2.53;;
49852;SDS011;35751;48.072;11.688;2023-08-06T05:23:10;3.03;;;2.65;;
49852;SDS011;35751;48.072;11.688;2023-08-06T05:25:36;3.67;;;2.13;;
49852;SDS011;35751;48.072;11.688;2023-08-06T05:28:02;3.95;;;2.33;;
49852;SDS011;35751;48.072;11.688;2023-08-06T05:30:28;5.32;;;2.88;;
49852;SDS011;35751;48.072;11.688;2023-08-06T05:32:56;2.90;;;2.35;;
49852;SDS011;35751;48.072;11.688;2023-08-06T05:35:22;5.15;;;2.20;;
49852;SDS011;35751;48.072;11.688;2023-08-06T05:37:47;4.72;;;2.58;;
49852;SDS011;35751;48.072;11.688;2023-08-06T05:40:13;2.38;;;1.92;;
49852;SDS011;35751;48.072;11.688;2023-08-06T05:42:39;2.40;;;2.20;;
49852;SDS011;35751;48.072;11.688;2023-08-06T05:45:05;3.40;;;2.60;;
49852;SDS011;35751;48.072;11.688;2023-08-06T05:47:33;2.97;;;2.10;;
49852;SDS011;35751;48.072;11.688;2023-08-06T05:49:58;1.98;;;1.77;;
49852;SDS011;35751;48.072;11.688;2023-08-06T05:52:24;5.05;;;3.38;;
49852;SDS011;35751;48.072;11.688;2023-08-06T05:54:49;2.40;;;1.90;;
49852;SDS011;35751;48.072;11.688;2023-08-06T05:57:14;3.13;;;2.40;;
49852;SDS011;35751;48.072;11.688;2023-08-06T05:59:40;4.90;;;2.15;;
49852;SDS011;35751;48.072;11.688;2023-08-06T06:02:06;6.07;;;2.00;;
49852;SDS011;35751;48.072;11.688;2023-08-06T06:04:31;2.42;;;2.10;;
49852;SDS011;35751;48.072;11.688;2023-08-06T06:06:56;4.18;;;2.25;;
49852;SDS011;35751;48.072;11.688;2023-08-06T06:09:22;2.55;;;2.00;;
49852;SDS011;35751;48.072;11.688;2023-08-06T06:11:47;2.83;;;1.75;;
49852;SDS011;35751;48.072;11.688;2023-08-06T06:14:14;4.45;;;1.88;;
49852;SDS011;35751;48.072;11.688;2023-08-06T06:16:40;2.55;;;1.65;;
49852;SDS011;35751;48.072;11.688;2023-08-06T06:19:05;2.33;;;1.90;;
49852;SDS011;35751;48.072;11.688;2023-08-06T06:21:30;2.40;;;1.60;;
49852;SDS011;35751;48.072;11.688;2023-08-06T06:23:55;2.78;;;1.55;;
49852;SDS011;35751;48.072;11.688;2023-08-06T06:26:21;2.50;;;1.88;;
49852;SDS011;35751;48.072;11.688;2023-08-06T06:28:47;4.55;;;2.90;;
49852;SDS011;35751;48.072;11.688;2023-08-06T06:31:12;3.90;;;1.60;;
49852;SDS011;35751;48.072;11.688;2023-08-06T06:33:37;2.53;;;1.85;;
49852;SDS011;35751;48.072;11.688;2023-08-06T06:36:03;2.35;;;1.77;;
49852;SDS011;35751;48.072;11.688;2023-08-06T06:38:28;3.13;;;1.80;;
49852;SDS011;35751;48.072;11.688;2023-08-06T06:40:54;5.68;;;1.67;;
49852;SDS011;35751;48.072;11.688;2023-08-06T06:43:21;2.40;;;1.90;;
49852;SDS011;35751;48.072;11.688;2023-08-06T06:45:46;1.83;;;1.33;;
49852;SDS011;35751;48.072;11.688;2023-08-06T06:48:11;3.17;;;1.67;;
49852;SDS011;35751;48.072;11.688;2023-08-06T06:50:40;1.42;;;1.15;;
49852;SDS011;35751;48.072;11.688;2023-08-06T06:53:05;3.65;;;1.58;;
49852;SDS011;35751;48.072;11.688;2023-08-06T06:55:31;2.97;;;1.65;;
49852;SDS011;35751;48.072;11.688;2023-08-06T06:57:56;1.65;;;1.42;;
49852;SDS011;35751;48.072;11.688;2023-08-06T07:00:21;3.42;;;1.52;;
49852;SDS011;35751;48.072;11.688;2023-08-06T07:02:46;3.83;;;1.67;;
49852;SDS011;35751;48.072;11.688;2023-08-06T07:05:12;2.25;;;1.40;;
49852;SDS011;35751;48.072;11.688;2023-08-06T07:07:37;3.70;;;1.27;;
49852;SDS011;35751;48.072;11.688;2023-08-06T07:10:03;1.77;;;1.55;;
49852;SDS011;35751;48.072;11.688;2023-08-06T07:12:28;1.98;;;1.40;;
49852;SDS011;35751;48.072;11.688;2023-08-06T07:14:53;2.78;;;1.20;;
49852;SDS011;35751;48.072;11.688;2023-08-06T07:17:19;1.98;;;1.23;;
49852;SDS011;35751;48.072;11.688;2023-08-06T07:19:44;2.60;;;1.20;;
49852;SDS011;35751;48.072;11.688;2023-08-06T07:22:09;1.40;;;1.00;;
49852;SDS011;35751;48.072;11.688;2023-08-06T07:24:35;2.20;;;1.30;;
49852;SDS011;35751;48.072;11.688;2023-08-06T07:27:00;1.98;;;1.00;;
49852;SDS011;35751;48.072;11.688;2023-08-06T07:29:26;1.52;;;1.05;;
49852;SDS011;35751;48.072;11.688;2023-08-06T07:31:51;3.92;;;1.55;;
49852;SDS011;35751;48.072;11.688;2023-08-06T07:34:16;5.00;;;1.25;;
49852;SDS011;35751;48.072;11.688;2023-08-06T07:36:45;2.13;;;0.85;;
49852;SDS011;35751;48.072;11.688;2023-08-06T07:39:23;1.98;;;1.27;;
49852;SDS011;35751;48.072;11.688;2023-08-06T07:41:48;2.45;;;1.80;;
49852;SDS011;35751;48.072;11.688;2023-08-06T07:44:16;0.63;;;0.63;;
49852;SDS011;35751;48.072;11.688;2023-08-06T07:46:45;2.75;;;1.75;;
49852;SDS011;35751;48.072;11.688;2023-08-06T07:49:10;1.92;;;1.15;;
49852;SDS011;35751;48.072;11.688;2023-08-06T07:51:38;2.55;;;1.27;;
49852;SDS011;35751;48.072;11.688;2023-08-06T07:54:04;2.83;;;1.63;;
49852;SDS011;35751;48.072;11.688;2023-08-06T07:56:29;2.45;;;1.20;;
49852;SDS011;35751;48.072;11.688;2023-08-06T07:58:54;1.50;;;1.23;;
49852;SDS011;35751;48.072;11.688;2023-08-06T08:01:20;3.75;;;1.65;;
49852;SDS011;35751;48.072;11.688;2023-08-06T08:03:46;2.53;;;1.10;;
49852;SDS011;35751;48.072;11.688;2023-08-06T08:12:56;1.98;;;1.00;;
49852;SDS011;35751;48.072;11.688;2023-08-06T08:15:21;1.60;;;1.02;;
49852;SDS011;35751;48.072;11.688;2023-08-06T08:17:46;3.10;;;1.23;;
49852;SDS011;35751;48.072;11.688;2023-08-06T08:20:13;2.78;;;1.20;;
49852;SDS011;35751;48.072;11.688;2023-08-06T08:22:40;2.50;;;1.15;;
49852;SDS011;35751;48.072;11.688;2023-08-06T08:25:05;2.50;;;1.30;;
49852;SDS011;35751;48.072;11.688;2023-08-06T08:27:31;1.15;;;1.05;;
49852;SDS011;35751;48.072;11.688;2023-08-06T08:29:57;2.70;;;1.25;;
49852;SDS011;35751;48.072;11.688;2023-08-06T08:32:22;2.17;;;1.73;;
49852;SDS011;35751;48.072;11.688;2023-08-06T08:34:47;1.98;;;1.08;;
49852;SDS011;35751;48.072;11.688;2023-08-06T08:37:13;1.17;;;0.90;;
49852;SDS011;35751;48.072;11.688;2023-08-06T08:39:41;1.58;;;0.90;;
49852;SDS011;35751;48.072;11.688;2023-08-06T08:42:07;2.38;;;1.02;;
49852;SDS011;35751;48.072;11.688;2023-08-06T08:44:37;3.80;;;1.23;;
49852;SDS011;35751;48.072;11.688;2023-08-06T08:47:09;1.73;;;1.10;;
49852;SDS011;35751;48.072;11.688;2023-08-06T08:49:36;1.33;;;0.75;;
49852;SDS011;35751;48.072;11.688;2023-08-06T08:52:02;0.60;;;0.60;;
49852;SDS011;35751;48.072;11.688;2023-08-06T08:54:35;1.08;;;0.70;;
49852;SDS011;35751;48.072;11.688;2023-08-06T08:57:03;1.27;;;0.60;;
49852;SDS011;35751;48.072;11.688;2023-08-06T08:59:33;0.68;;;0.60;;
49852;SDS011;35751;48.072;11.688;2023-08-06T09:02:05;0.73;;;0.45;;
49852;SDS011;35751;48.072;11.688;2023-08-06T09:04:32;3.40;;;0.80;;
49852;SDS011;35751;48.072;11.688;2023-08-06T09:06:57;0.50;;;0.50;;
49852;SDS011;35751;48.072;11.688;2023-08-06T09:09:28;1.70;;;0.40;;
49852;SDS011;35751;48.072;11.688;2023-08-06T09:11:59;0.40;;;0.40;;
49852;SDS011;35751;48.072;11.688;2023-08-06T09:14:26;0.85;;;0.35;;
49852;SDS011;35751;48.072;11.688;2023-08-06T09:16:52;0.20;;;0.20;;
49852;SDS011;35751;48.072;11.688;2023-08-06T09:19:17;0.75;;;0.40;;
49852;SDS011;35751;48.072;11.688;2023-08-06T09:21:43;0.30;;;0.30;;
49852;SDS011;35751;48.072;11.688;2023-08-06T09:24:32;2.67;;;0.50;;
49852;SDS011;35751;48.072;11.688;2023-08-06T09:26:58;0.65;;;0.35;;
49852;SDS011;35751;48.072;11.688;2023-08-06T09:29:31;2.97;;;0.63;;
49852;SDS011;35751;48.072;11.688;2023-08-06T09:32:17;1.45;;;0.30;;
49852;SDS011;35751;48.072;11.688;2023-08-06T09:34:42;0.82;;;0.40;;
49852;SDS011;35751;48.072;11.688;2023-08-06T09:37:08;4.68;;;0.90;;
49852;SDS011;35751;48.072;11.688;2023-08-06T09:39:35;0.70;;;0.40;;
49852;SDS011;35751;48.072;11.688;2023-08-06T09:42:03;1.25;;;0.45;;
49852;SDS011;35751;48.072;11.688;2023-08-06T09:44:30;1.05;;;0.30;;
49852;SDS011;35751;48.072;11.688;2023-08-06T09:47:01;0.52;;;0.40;;
49852;SDS011;35751;48.072;11.688;2023-08-06T09:49:40;0.45;;;0.30;;
49852;SDS011;35751;48.072;11.688;2023-08-06T09:52:09;0.30;;;0.30;;
49852;SDS011;35751;48.072;11.688;2023-08-06T09:54:54;0.73;;;0.40;;
49852;SDS011;35751;48.072;11.688;2023-08-06T09:57:19;0.40;;;0.40;;
49852;SDS011;35751;48.072;11.688;2023-08-06T09:59:45;0.30;;;0.30;;
49852;SDS011;35751;48.072;11.688;2023-08-06T10:02:20;0.77;;;0.30;;
49852;SDS011;35751;48.072;11.688;2023-08-06T10:04:50;0.25;;;0.25;;
49852;SDS011;35751;48.072;11.688;2023-08-06T10:07:15;0.20;;;0.20;;
49852;SDS011;35751;48.072;11.688;2023-08-06T10:09:43;0.45;;;0.45;;
49852;SDS011;35751;48.072;11.688;2023-08-06T10:12:15;1.38;;;0.30;;
49852;SDS011;35751;48.072;11.688;2023-08-06T10:15:02;0.10;;;0.10;;
49852;SDS011;35751;48.072;11.688;2023-08-06T10:20:15;0.10;;;0.10;;
49852;SDS011;35751;48.072;11.688;2023-08-06T10:25:32;0.30;;;0.30;;
49852;SDS011;35751;48.072;11.688;2023-08-06T10:27:58;0.80;;;0.63;;
49852;SDS011;35751;48.072;11.688;2023-08-06T10:30:30;0.20;;;0.20;;
49852;SDS011;35751;48.072;11.688;2023-08-06T10:33:50;0.20;;;0.20;;
49852;SDS011;35751;48.072;11.688;2023-08-06T10:36:18;0.38;;;0.30;;
49852;SDS011;35751;48.072;11.688;2023-08-06T10:38:49;0.38;;;0.28;;
49852;SDS011;35751;48.072;11.688;2023-08-06T10:41:28;0.15;;;0.15;;
49852;SDS011;35751;48.072;11.688;2023-08-06T10:44:19;2.55;;;0.22;;
49852;SDS011;35751;48.072;11.688;2023-08-06T10:46:51;0.85;;;0.47;;
49852;SDS011;35751;48.072;11.688;2023-08-06T10:49:22;0.70;;;0.20;;
49852;SDS011;35751;48.072;11.688;2023-08-06T10:51:47;0.43;;;0.20;;
49852;SDS011;35751;48.072;11.688;2023-08-06T10:54:16;2.20;;;0.22;;
49852;SDS011;35751;48.072;11.688;2023-08-06T10:56:52;0.25;;;0.25;;
49852;SDS011;35751;48.072;11.688;2023-08-06T10:59:24;0.20;;;0.20;;
49852;SDS011;35751;48.072;11.688;2023-08-06T11:01:49;0.22;;;0.10;;
49852;SDS011;35751;48.072;11.688;2023-08-06T11:04:18;0.20;;;0.20;;
49852;SDS011;35751;48.072;11.688;2023-08-06T11:06:55;0.22;;;0.20;;
49852;SDS011;35751;48.072;11.688;2023-08-06T11:09:23;0.25;;;0.10;;
49852;SDS011;35751;48.072;11.688;2023-08-06T11:11:51;0.20;;;0.20;;
49852;SDS011;35751;48.072;11.688;2023-08-06T11:14:20;0.57;;;0.28;;
49852;SDS011;35751;48.072;11.688;2023-08-06T11:16:47;0.20;;;0.20;;
49852;SDS011;35751;48.072;11.688;2023-08-06T11:19:24;0.20;;;0.20;;
49852;SDS011;35751;48.072;11.688;2023-08-06T11:21:51;2.27;;;0.30;;
49852;SDS011;35751;48.072;11.688;2023-08-06T11:24:16;0.20;;;0.20;;
49852;SDS011;35751;48.072;11.688;2023-08-06T11:26:42;0.20;;;0.10;;
49852;SDS011;35751;48.072;11.688;2023-08-06T11:29:09;0.20;;;0.20;;
49852;SDS011;35751;48.072;11.688;2023-08-06T11:31:37;0.88;;;0.20;;
49852;SDS011;35751;48.072;11.688;2023-08-06T11:34:14;0.50;;;0.30;;
49852;SDS011;35751;48.072;11.688;2023-08-06T11:36:40;0.20;;;0.20;;
49852;SDS011;35751;48.072;11.688;2023-08-06T11:39:06;0.25;;;0.10;;
49852;SDS011;35751;48.072;11.688;2023-08-06T11:41:32;0.20;;;0.10;;
49852;SDS011;35751;48.072;11.688;2023-08-06T11:44:15;1.20;;;0.10;;
49852;SDS011;35751;48.072;11.688;2023-08-06T11:46:53;1.08;;;0.10;;
49852;SDS011;35751;48.072;11.688;2023-08-06T11:55:04;0.43;;;0.43;;
49852;SDS011;35751;48.072;11.688;2023-08-06T11:57:43;0.13;;;0.13;;
49852;SDS011;35751;48.072;11.688;2023-08-06T12:00:12;0.32;;;0.30;;
49852;SDS011;35751;48.072;11.688;2023-08-06T12:02:51;0.13;;;0.13;;
49852;SDS011;35751;48.072;11.688;2023-08-06T12:07:49;0.20;;;0.20;;
49852;SDS011;35751;48.072;11.688;2023-08-06T12:10:21;0.57;;;0.13;;
49852;SDS011;35751;48.072;11.688;2023-08-06T12:12:49;0.13;;;0.10;;
49852;SDS011;35751;48.072;11.688;2023-08-06T12:15:15;0.20;;;0.20;;
49852;SDS011;35751;48.072;11.688;2023-08-06T12:17:43;0.20;;;0.20;;
49852;SDS011;35751;48.072;11.688;2023-08-06T12:20:22;0.25;;;0.20;;
49852;SDS011;35751;48.072;11.688;2023-08-06T12:22:48;0.13;;;0.13;;
49852;SDS011;35751;48.072;11.688;2023-08-06T12:25:16;0.20;;;0.20;;
49852;SDS011;35751;48.072;11.688;2023-08-06T12:27:43;0.20;;;0.20;;
49852;SDS011;35751;48.072;11.688;2023-08-06T12:30:10;0.75;;;0.20;;
49852;SDS011;35751;48.072;11.688;2023-08-06T12:32:36;1.27;;;0.30;;
49852;SDS011;35751;48.072;11.688;2023-08-06T12:35:01;0.20;;;0.20;;
49852;SDS011;35751;48.072;11.688;2023-08-06T12:37:28;0.20;;;0.20;;
49852;SDS011;35751;48.072;11.688;2023-08-06T12:40:00;1.20;;;0.20;;
49852;SDS011;35751;48.072;11.688;2023-08-06T12:42:25;0.65;;;0.30;;
49852;SDS011;35751;48.072;11.688;2023-08-06T12:44:51;0.20;;;0.20;;
49852;SDS011;35751;48.072;11.688;2023-08-06T12:47:19;0.43;;;0.20;;
49852;SDS011;35751;48.072;11.688;2023-08-06T12:49:52;0.20;;;0.20;;
49852;SDS011;35751;48.072;11.688;2023-08-06T12:52:20;0.10;;;0.10;;
49852;SDS011;35751;48.072;11.688;2023-08-06T12:54:45;0.20;;;0.20;;
49852;SDS011;35751;48.072;11.688;2023-08-06T12:57:14;0.20;;;0.20;;
49852;SDS011;35751;48.072;11.688;2023-08-06T12:59:39;0.20;;;0.20;;
49852;SDS011;35751;48.072;11.688;2023-08-06T13:02:07;0.30;;;0.30;;
49852;SDS011;35751;48.072;11.688;2023-08-06T13:04:35;0.25;;;0.25;;
49852;SDS011;35751;48.072;11.688;2023-08-06T13:07:01;0.30;;;0.25;;
49852;SDS011;35751;48.072;11.688;2023-08-06T13:09:31;0.30;;;0.30;;
49852;SDS011;35751;48.072;11.688;2023-08-06T13:12:06;0.52;;;0.30;;
49852;SDS011;35751;48.072;11.688;2023-08-06T13:14:31;0.38;;;0.30;;
49852;SDS011;35751;48.072;11.688;2023-08-06T13:16:57;0.20;;;0.20;;
49852;SDS011;35751;48.072;11.688;2023-08-06T13:19:22;0.30;;;0.30;;
49852;SDS011;35751;48.072;11.688;2023-08-06T13:24:14;0.40;;;0.40;;
49852;SDS011;35751;48.072;11.688;2023-08-06T13:26:40;0.30;;;0.30;;
49852;SDS011;35751;48.072;11.688;2023-08-06T13:29:05;0.10;;;0.10;;
49852;SDS011;35751;48.072;11.688;2023-08-06T13:31:32;0.32;;;0.30;;
49852;SDS011;35751;48.072;11.688;2023-08-06T13:33:57;0.40;;;0.40;;
49852;SDS011;35751;48.072;11.688;2023-08-06T13:36:23;0.98;;;0.30;;
49852;SDS011;35751;48.072;11.688;2023-08-06T13:38:49;0.30;;;0.30;;
49852;SDS011;35751;48.072;11.688;2023-08-06T13:41:14;0.55;;;0.35;;
49852;SDS011;35751;48.072;11.688;2023-08-06T13:43:40;0.50;;;0.30;;
49852;SDS011;35751;48.072;11.688;2023-08-06T13:46:05;0.65;;;0.40;;
49852;SDS011;35751;48.072;11.688;2023-08-06T13:48:30;0.68;;;0.38;;
49852;SDS011;35751;48.072;11.688;2023-08-06T13:50:56;2.33;;;0.38;;
49852;SDS011;35751;48.072;11.688;2023-08-06T13:53:21;2.38;;;0.28;;
49852;SDS011;35751;48.072;11.688;2023-08-06T13:55:50;0.32;;;0.30;;
49852;SDS011;35751;48.072;11.688;2023-08-06T13:58:26;0.93;;;0.40;;
49852;SDS011;35751;48.072;11.688;2023-08-06T14:00:52;0.30;;;0.30;;
49852;SDS011;35751;48.072;11.688;2023-08-06T14:03:19;0.40;;;0.40;;
49852;SDS011;35751;48.072;11.688;2023-08-06T14:05:47;0.30;;;0.30;;
49852;SDS011;35751;48.072;11.688;2023-08-06T14:08:13;1.92;;;0.38;;
49852;SDS011;35751;48.072;11.688;2023-08-06T14:10:41;2.05;;;0.45;;
49852;SDS011;35751;48.072;11.688;2023-08-06T14:13:07;0.40;;;0.40;;
49852;SDS011;35751;48.072;11.688;2023-08-06T14:15:36;0.45;;;0.45;;
49852;SDS011;35751;48.072;11.688;2023-08-06T14:18:07;0.65;;;0.47;;
49852;SDS011;35751;48.072;11.688;2023-08-06T14:20:35;0.45;;;0.45;;
49852;SDS011;35751;48.072;11.688;2023-08-06T14:23:12;0.32;;;0.32;;
49852;SDS011;35751;48.072;11.688;2023-08-06T14:25:40;0.20;;;0.20;;
49852;SDS011;35751;48.072;11.688;2023-08-06T14:28:06;1.55;;;0.35;;
49852;SDS011;35751;48.072;11.688;2023-08-06T14:30:34;0.45;;;0.45;;
49852;SDS011;35751;48.072;11.688;2023-08-06T14:33:01;0.50;;;0.50;;
49852;SDS011;35751;48.072;11.688;2023-08-06T14:35:31;0.45;;;0.38;;
49852;SDS011;35751;48.072;11.688;2023-08-06T14:37:58;0.40;;;0.40;;
49852;SDS011;35751;48.072;11.688;2023-08-06T14:40:24;0.52;;;0.40;;
49852;SDS011;35751;48.072;11.688;2023-08-06T14:42:53;0.73;;;0.50;;
49852;SDS011;35751;48.072;11.688;2023-08-06T14:45:18;1.63;;;0.40;;
49852;SDS011;35751;48.072;11.688;2023-08-06T14:47:43;1.58;;;0.40;;
49852;SDS011;35751;48.072;11.688;2023-08-06T14:50:09;1.48;;;1.27;;
49852;SDS011;35751;48.072;11.688;2023-08-06T14:52:34;1.10;;;0.40;;
49852;SDS011;35751;48.072;11.688;2023-08-06T14:55:00;0.50;;;0.50;;
49852;SDS011;35751;48.072;11.688;2023-08-06T14:57:27;1.55;;;0.60;;
49852;SDS011;35751;48.072;11.688;2023-08-06T14:59:53;0.50;;;0.50;;
49852;SDS011;35751;48.072;11.688;2023-08-06T15:02:19;0.40;;;0.30;;